Terminal Aerodrome Forecast
Issued by NWS

Home | Current Version | Previous Version | Text Only | Print | Product List | Glossary On
Versions: 1 2 3 4 5 6 7 8 9 10 11 12 13 14 15
000
FTAK31 PAJN 271100
TAFAPG
TAF
PAPG 271120Z 2712/2812 23004KT P6SM -SHRA SCT025 OVC050
     FM271800 05005KT P6SM -SHRA SCT020 OVC040
     FM272100 06005KT P6SM VCSH SCT030 OVC060
     FM280600 VRB04KT P6SM SCT050 BKN080
      AMD LTD TO CLD VIS AND WIND 2712/2715=

USA.gov is the U.S. government's official web portal to all federal, state and local government web resources and services.